createdAt,value
2022-11-23T00:00:43.680Z,1.00
2022-11-23T00:03:15.959Z,1.00
2022-11-23T00:05:43.084Z,1.00
2022-11-23T00:08:10.039Z,1.00
2022-11-23T00:10:37.092Z,1.00
2022-11-23T00:13:04.028Z,1.00
2022-11-23T00:15:32.579Z,0.90
2022-11-23T00:18:02.768Z,0.90
2022-11-23T00:20:30.001Z,0.90
2022-11-23T00:22:56.916Z,0.90
2022-11-23T00:25:23.996Z,0.80
2022-11-23T00:27:50.968Z,0.80
2022-11-23T00:30:18.172Z,0.80
2022-11-23T00:32:45.076Z,0.80
2022-11-23T00:35:12.113Z,0.80
2022-11-23T00:37:39.034Z,0.80
2022-11-23T00:40:07.740Z,0.70
2022-11-23T00:42:37.973Z,0.70
2022-11-23T00:45:06.066Z,0.60
2022-11-23T00:47:33.064Z,0.60
2022-11-23T00:50:00.119Z,0.60
2022-11-23T00:52:27.118Z,0.70
2022-11-23T00:54:54.174Z,0.70
2022-11-23T00:57:21.117Z,0.70
2022-11-23T00:59:48.150Z,0.70
2022-11-23T01:02:15.168Z,0.70
2022-11-23T01:04:42.299Z,0.70
2022-11-23T01:07:09.339Z,0.70
2022-11-23T01:09:36.382Z,0.70
2022-11-23T01:12:03.472Z,0.70
2022-11-23T01:14:30.468Z,0.70
2022-11-23T01:16:57.448Z,0.70
2022-11-23T01:19:25.354Z,0.70
2022-11-23T01:21:52.607Z,0.60
2022-11-23T01:24:23.377Z,0.60
2022-11-23T01:26:54.528Z,0.60
2022-11-23T01:29:22.817Z,0.60
2022-11-23T01:31:50.058Z,0.70
2022-11-23T01:34:17.418Z,0.70
2022-11-23T01:36:45.189Z,0.70
2022-11-23T01:39:13.228Z,0.70
2022-11-23T01:41:42.583Z,0.60
2022-11-23T01:44:32.560Z,0.60
2022-11-23T01:47:01.839Z,0.60
2022-11-23T01:49:36.982Z,0.60
2022-11-23T01:52:13.073Z,0.60
2022-11-23T01:55:02.591Z,0.60
2022-11-23T01:57:38.064Z,0.50
2022-11-23T02:00:05.753Z,0.50
2022-11-23T02:02:34.146Z,0.50
2022-11-23T02:05:02.393Z,0.50
2022-11-23T02:07:30.344Z,0.50
2022-11-23T02:09:57.790Z,0.50
2022-11-23T02:12:24.957Z,0.60
2022-11-23T02:14:52.277Z,0.50
2022-11-23T02:17:19.876Z,0.60
2022-11-23T02:20:12.164Z,0.50
2022-11-23T02:23:03.907Z,0.60
2022-11-23T02:25:46.004Z,0.50
2022-11-23T02:28:19.746Z,0.60
2022-11-23T02:30:49.742Z,0.70
2022-11-23T02:33:16.866Z,0.80
2022-11-23T02:36:03.016Z,0.90
2022-11-23T02:38:34.216Z,0.90
2022-11-23T02:41:01.162Z,1.00
2022-11-23T02:43:28.326Z,1.10
2022-11-23T02:45:57.921Z,1.10
2022-11-23T02:48:24.976Z,1.20
2022-11-23T02:50:52.209Z,1.20
2022-11-23T02:53:19.891Z,1.30
2022-11-23T02:55:47.131Z,1.30
2022-11-23T02:58:15.187Z,1.20
2022-11-23T03:00:42.375Z,1.20
2022-11-23T03:03:09.547Z,1.20
2022-11-23T03:05:36.681Z,1.20
2022-11-23T03:08:03.926Z,1.20
2022-11-23T03:10:30.902Z,1.20
2022-11-23T03:12:57.925Z,1.10
2022-11-23T03:15:25.416Z,1.10
2022-11-23T03:17:52.830Z,1.10
2022-11-23T03:20:20.549Z,1.10
2022-11-23T03:22:47.572Z,1.00
2022-11-23T03:25:14.924Z,1.00
2022-11-23T03:27:41.982Z,1.00
2022-11-23T03:30:10.141Z,1.00
2022-11-23T03:32:37.418Z,0.90
2022-11-23T03:35:05.548Z,0.90
2022-11-23T03:37:32.539Z,0.90
2022-11-23T03:39:59.483Z,0.90
2022-11-23T03:42:26.786Z,0.90
2022-11-23T03:44:53.760Z,0.90
2022-11-23T03:47:20.826Z,0.80
2022-11-23T03:49:48.136Z,0.80
2022-11-23T03:52:15.089Z,0.70
2022-11-23T03:54:42.096Z,0.70
2022-11-23T03:57:09.298Z,0.70
2022-11-23T03:59:36.297Z,0.60
2022-11-23T04:02:03.373Z,0.60
2022-11-23T04:04:30.425Z,0.60
2022-11-23T04:06:57.388Z,0.60
2022-11-23T04:09:24.600Z,0.60
2022-11-23T04:11:51.809Z,0.70
2022-11-23T04:14:18.743Z,0.70
2022-11-23T04:16:45.950Z,0.60
2022-11-23T04:19:12.868Z,0.60
2022-11-23T04:21:39.854Z,0.70
2022-11-23T04:24:07.170Z,0.70
2022-11-23T04:26:34.158Z,0.70
2022-11-23T04:29:01.199Z,0.70
2022-11-23T04:31:28.174Z,0.60
2022-11-23T04:33:57.305Z,0.60
2022-11-23T04:36:24.641Z,0.70
2022-11-23T04:38:51.867Z,0.70
2022-11-23T04:41:18.966Z,0.70
2022-11-23T04:43:50.152Z,0.70
2022-11-23T04:46:17.102Z,0.80
2022-11-23T04:48:44.172Z,0.80
2022-11-23T04:51:11.108Z,0.80
2022-11-23T04:53:38.236Z,0.90
2022-11-23T04:56:05.383Z,0.90
2022-11-23T04:58:34.613Z,1.00
2022-11-23T05:01:01.944Z,1.00
2022-11-23T05:03:29.009Z,1.10
2022-11-23T05:05:59.230Z,1.10
2022-11-23T05:08:26.201Z,1.20
2022-11-23T05:10:53.144Z,1.20
2022-11-23T05:13:20.229Z,1.20
2022-11-23T05:15:47.171Z,1.20
2022-11-23T05:18:14.232Z,1.20
2022-11-23T05:20:41.529Z,1.30
2022-11-23T05:23:08.642Z,1.30
2022-11-23T05:25:35.636Z,1.30
2022-11-23T05:28:30.199Z,1.30
2022-11-23T05:30:51.140Z,1.30
2022-11-23T05:33:18.081Z,1.30
2022-11-23T05:35:45.082Z,1.30
2022-11-23T05:38:12.115Z,1.40
2022-11-23T05:40:39.485Z,1.40
2022-11-23T05:43:06.454Z,1.40
2022-11-23T05:45:33.397Z,1.50
2022-11-23T05:48:00.363Z,1.50
2022-11-23T05:50:28.515Z,1.50
2022-11-23T05:52:59.556Z,1.50
2022-11-23T05:55:27.275Z,1.60
2022-11-23T05:57:54.452Z,1.50
2022-11-23T06:00:21.951Z,1.60
2022-11-23T06:02:49.115Z,1.60
2022-11-23T06:05:16.245Z,1.60
2022-11-23T06:07:43.224Z,1.60
2022-11-23T06:10:12.120Z,1.60
2022-11-23T06:12:39.049Z,1.60
2022-11-23T06:15:06.759Z,1.60
2022-11-23T06:17:33.692Z,1.60
2022-11-23T06:20:00.756Z,1.60
2022-11-23T06:22:27.727Z,1.60
2022-11-23T06:24:54.712Z,1.70
2022-11-23T06:27:21.708Z,1.70
2022-11-23T06:29:48.790Z,1.80
2022-11-23T06:32:16.320Z,1.80
2022-11-23T06:34:43.286Z,1.80
2022-11-23T06:37:10.699Z,1.80
2022-11-23T06:39:37.708Z,1.80
2022-11-23T06:42:23.812Z,1.80
2022-11-23T06:44:51.553Z,1.90
2022-11-23T06:47:24.473Z,1.90
2022-11-23T06:49:52.907Z,1.90
2022-11-23T06:52:19.948Z,1.90
2022-11-23T06:54:46.996Z,1.90
2022-11-23T06:57:14.108Z,1.90
2022-11-23T06:59:44.750Z,1.90
2022-11-23T07:02:12.976Z,1.90
2022-11-23T07:04:39.905Z,1.90
2022-11-23T07:07:10.172Z,1.90
2022-11-23T07:09:38.196Z,2.00
2022-11-23T07:12:05.383Z,2.00
2022-11-23T07:14:32.292Z,2.00
2022-11-23T07:16:59.227Z,2.00
2022-11-23T07:19:26.142Z,2.00
2022-11-23T07:21:53.086Z,2.10
2022-11-23T07:24:19.990Z,2.20
2022-11-23T07:26:46.974Z,2.20
2022-11-23T07:29:13.917Z,2.30
2022-11-23T07:31:40.945Z,2.30
2022-11-23T07:34:09.388Z,2.40
2022-11-23T07:36:36.787Z,2.40
2022-11-23T07:39:04.487Z,2.40
2022-11-23T07:41:31.438Z,2.50
2022-11-23T07:43:58.516Z,2.50
2022-11-23T07:46:25.713Z,2.60
2022-11-23T07:48:54.494Z,2.60
2022-11-23T07:51:21.508Z,2.70
2022-11-23T07:53:48.532Z,2.80
2022-11-23T07:56:15.483Z,2.90
2022-11-23T07:58:42.504Z,2.90
2022-11-23T08:01:09.529Z,3.00
2022-11-23T08:03:36.580Z,3.20
2022-11-23T08:06:03.581Z,3.30
2022-11-23T08:08:30.631Z,3.40
2022-11-23T08:10:57.542Z,3.50
2022-11-23T08:13:24.513Z,3.50
2022-11-23T08:15:55.479Z,3.60
2022-11-23T08:18:26.188Z,3.60
2022-11-23T08:20:53.601Z,3.70
2022-11-23T08:23:20.928Z,3.70
2022-11-23T08:25:47.892Z,3.80
2022-11-23T08:28:14.903Z,3.90
2022-11-23T08:30:41.905Z,3.90
2022-11-23T08:33:09.564Z,4.00
2022-11-23T08:35:37.679Z,4.00
2022-11-23T08:38:05.495Z,4.20
2022-11-23T08:40:33.074Z,4.30
2022-11-23T08:43:00.044Z,4.40
2022-11-23T08:45:27.404Z,4.50
2022-11-23T08:47:55.825Z,4.60
2022-11-23T08:50:22.944Z,4.70
2022-11-23T08:52:58.304Z,4.80
2022-11-23T08:55:27.010Z,5.00
2022-11-23T08:57:58.311Z,5.00
2022-11-23T09:00:26.140Z,5.10
2022-11-23T09:02:53.134Z,5.30
2022-11-23T09:05:20.135Z,5.40
2022-11-23T09:07:47.280Z,5.50
2022-11-23T09:10:18.293Z,5.50
2022-11-23T09:12:46.759Z,5.50
2022-11-23T09:15:13.874Z,5.60
2022-11-23T09:17:40.856Z,5.70
2022-11-23T09:20:08.503Z,5.80
2022-11-23T09:22:35.410Z,5.80
2022-11-23T09:25:02.888Z,5.80
2022-11-23T09:27:29.882Z,5.90
2022-11-23T09:29:56.816Z,5.90
2022-11-23T09:32:23.780Z,6.00
2022-11-23T09:34:50.917Z,6.20
2022-11-23T09:37:17.882Z,6.40
2022-11-23T09:39:44.977Z,6.40
2022-11-23T09:42:30.663Z,6.50
2022-11-23T09:45:00.307Z,6.30
2022-11-23T09:47:45.556Z,6.50
2022-11-23T09:50:28.444Z,6.80
2022-11-23T09:52:55.875Z,7.30
2022-11-23T09:55:42.385Z,7.50
2022-11-23T09:58:33.081Z,7.70
2022-11-23T10:01:08.140Z,8.00
2022-11-23T10:03:41.541Z,8.10
2022-11-23T10:06:21.388Z,8.30
2022-11-23T10:09:13.060Z,8.50
2022-11-23T10:12:05.381Z,8.60
2022-11-23T10:14:35.259Z,8.80
2022-11-23T10:17:21.109Z,8.90
2022-11-23T10:20:15.688Z,8.90
2022-11-23T10:22:59.767Z,8.90
2022-11-23T10:25:39.445Z,8.80
2022-11-23T10:28:15.269Z,8.80
2022-11-23T10:30:43.269Z,8.90
2022-11-23T10:33:25.328Z,9.00
2022-11-23T10:35:52.293Z,9.20
2022-11-23T10:38:20.834Z,9.10
2022-11-23T10:41:03.065Z,9.10
2022-11-23T10:43:47.244Z,9.20
2022-11-23T10:46:23.247Z,9.30
2022-11-23T10:48:52.618Z,9.40
2022-11-23T10:51:32.840Z,9.40
2022-11-23T10:54:06.440Z,9.40
2022-11-23T10:56:34.736Z,9.40
2022-11-23T10:59:01.831Z,9.30
2022-11-23T11:01:30.340Z,9.40
2022-11-23T11:04:06.555Z,9.50
2022-11-23T11:06:36.238Z,9.50
2022-11-23T11:09:09.570Z,9.50
2022-11-23T11:11:45.760Z,9.40
2022-11-23T11:14:23.773Z,9.40
2022-11-23T11:16:56.013Z,9.30
2022-11-23T11:19:30.000Z,9.20
2022-11-23T11:21:58.200Z,9.20
2022-11-23T11:24:38.603Z,9.10
2022-11-23T11:27:13.481Z,9.10
2022-11-23T11:29:50.431Z,9.00
2022-11-23T11:32:44.736Z,9.00
2022-11-23T11:35:21.344Z,9.00
2022-11-23T11:37:51.171Z,9.10
2022-11-23T11:40:45.552Z,9.20
2022-11-23T11:43:39.407Z,9.20
2022-11-23T11:46:29.981Z,9.30
2022-11-23T11:49:03.364Z,9.30
2022-11-23T11:51:54.841Z,9.40
2022-11-23T11:54:40.435Z,9.50
2022-11-23T11:57:19.892Z,9.60
2022-11-23T11:59:55.021Z,9.60
2022-11-23T12:02:36.897Z,9.60
2022-11-23T12:05:29.722Z,9.70
2022-11-23T12:08:13.382Z,9.70
2022-11-23T12:11:02.262Z,9.70
2022-11-23T12:13:38.185Z,9.70
2022-11-23T12:16:28.517Z,9.70
2022-11-23T12:19:10.667Z,9.80
2022-11-23T12:22:16.508Z,9.80
2022-11-23T12:25:01.420Z,9.90
2022-11-23T12:27:45.028Z,10.00
2022-11-23T12:30:21.679Z,10.00
2022-11-23T12:33:13.231Z,10.10
2022-11-23T12:36:23.756Z,10.20
2022-11-23T12:39:10.460Z,10.30
2022-11-23T12:41:53.158Z,10.20
2022-11-23T12:45:03.568Z,10.10
2022-11-23T12:47:30.443Z,10.00
2022-11-23T12:50:13.110Z,10.00
2022-11-23T12:52:52.114Z,10.10
2022-11-23T12:55:29.222Z,10.30
2022-11-23T12:58:02.596Z,10.50
2022-11-23T13:00:37.968Z,10.60
2022-11-23T13:03:19.405Z,10.50
2022-11-23T13:06:04.417Z,10.50
2022-11-23T13:08:37.475Z,10.50
2022-11-23T13:11:10.597Z,10.50
2022-11-23T13:13:54.169Z,10.50
2022-11-23T13:16:26.254Z,10.50
2022-11-23T13:19:04.407Z,10.40
2022-11-23T13:21:46.721Z,10.40
2022-11-23T13:24:36.022Z,10.20
2022-11-23T13:27:31.706Z,10.10
2022-11-23T13:30:07.389Z,10.10
2022-11-23T13:32:56.189Z,10.20
2022-11-23T13:35:23.116Z,10.30
2022-11-23T13:37:56.375Z,10.30
2022-11-23T13:40:27.485Z,10.20
2022-11-23T13:42:59.706Z,10.10
2022-11-23T13:45:45.277Z,10.00
2022-11-23T13:48:41.134Z,10.10
2022-11-23T13:51:02.536Z,10.00
2022-11-23T13:53:38.132Z,9.90
2022-11-23T13:56:35.467Z,9.90
2022-11-23T13:59:23.192Z,9.90
2022-11-23T14:02:08.344Z,9.80
2022-11-23T14:04:40.315Z,9.80
2022-11-23T14:07:13.130Z,9.70
2022-11-23T14:09:49.277Z,9.60
2022-11-23T14:12:39.710Z,9.50
2022-11-23T14:15:14.375Z,9.30
2022-11-23T14:18:10.799Z,9.30
2022-11-23T14:20:52.631Z,9.10
2022-11-23T14:23:31.745Z,8.90
2022-11-23T14:25:58.643Z,8.70
2022-11-23T14:29:12.598Z,8.60
2022-11-23T14:32:07.768Z,8.40
2022-11-23T14:34:52.810Z,8.20
2022-11-23T14:37:32.226Z,8.00
2022-11-23T14:40:11.198Z,7.90
2022-11-23T14:42:44.438Z,7.70
2022-11-23T14:45:16.036Z,7.60
2022-11-23T14:47:43.018Z,7.50
2022-11-23T14:50:23.988Z,7.30
2022-11-23T14:52:53.039Z,7.20
2022-11-23T14:55:29.436Z,7.00
2022-11-23T14:58:01.362Z,6.90
2022-11-23T15:00:43.603Z,6.70
2022-11-23T15:03:48.676Z,6.60
2022-11-23T15:06:13.041Z,6.40
2022-11-23T15:08:54.925Z,6.20
2022-11-23T15:11:26.559Z,6.10
2022-11-23T15:14:04.663Z,6.00
2022-11-23T15:16:39.784Z,5.80
2022-11-23T15:19:33.165Z,5.70
2022-11-23T15:22:00.325Z,5.60
2022-11-23T15:24:28.465Z,5.50
2022-11-23T15:27:09.491Z,5.30
2022-11-23T15:29:40.029Z,5.30
2022-11-23T15:32:34.708Z,5.10
2022-11-23T15:35:10.786Z,5.00
2022-11-23T15:37:48.947Z,4.90
2022-11-23T15:40:18.228Z,4.80
2022-11-23T15:42:48.565Z,4.70
2022-11-23T15:45:36.145Z,4.70
2022-11-23T15:48:06.305Z,4.60
2022-11-23T15:50:34.386Z,4.50
2022-11-23T15:53:02.448Z,4.40
2022-11-23T15:55:30.424Z,4.30
2022-11-23T15:57:58.024Z,4.20
2022-11-23T16:00:26.120Z,4.10
2022-11-23T16:02:53.525Z,4.00
2022-11-23T16:05:22.849Z,3.90
2022-11-23T16:08:01.222Z,3.80
2022-11-23T16:10:29.036Z,3.80
2022-11-23T16:13:01.513Z,3.80
2022-11-23T16:15:37.850Z,3.80
2022-11-23T16:18:14.011Z,3.80
2022-11-23T16:20:55.093Z,3.70
2022-11-23T16:23:27.643Z,3.70
2022-11-23T16:26:01.194Z,3.60
2022-11-23T16:28:33.040Z,3.40
2022-11-23T16:31:00.920Z,3.40
2022-11-23T16:33:28.736Z,3.30
2022-11-23T16:35:55.888Z,3.30
2022-11-23T16:38:24.424Z,3.30
2022-11-23T16:40:51.954Z,3.30
2022-11-23T16:43:19.360Z,3.30
2022-11-23T16:45:48.951Z,3.20
2022-11-23T16:48:27.956Z,3.20
2022-11-23T16:50:56.745Z,3.10
2022-11-23T16:53:26.954Z,3.00
2022-11-23T16:55:55.540Z,2.90
2022-11-23T16:58:23.088Z,2.90
2022-11-23T17:00:50.719Z,2.80
2022-11-23T17:03:19.798Z,2.80
2022-11-23T17:05:47.781Z,2.70
2022-11-23T17:08:21.531Z,2.70
2022-11-23T17:10:49.697Z,2.60
2022-11-23T17:13:28.877Z,2.60
2022-11-23T17:15:56.457Z,2.50
2022-11-23T17:18:23.530Z,2.50
2022-11-23T17:20:50.550Z,2.40
2022-11-23T17:23:17.640Z,2.40
2022-11-23T17:25:44.736Z,2.40
2022-11-23T17:28:22.562Z,2.30
2022-11-23T17:30:49.942Z,2.30
2022-11-23T17:33:17.228Z,2.30
2022-11-23T17:35:44.372Z,2.20
2022-11-23T17:38:17.105Z,2.20
2022-11-23T17:40:44.413Z,2.20
2022-11-23T17:43:14.838Z,2.20
2022-11-23T17:45:43.005Z,2.30
2022-11-23T17:48:13.228Z,2.40
2022-11-23T17:50:40.503Z,2.40
2022-11-23T17:53:07.630Z,2.40
2022-11-23T17:55:34.826Z,2.40
2022-11-23T17:58:02.321Z,2.40
2022-11-23T18:00:30.455Z,2.50
2022-11-23T18:02:57.520Z,2.60
2022-11-23T18:05:24.676Z,2.60
2022-11-23T18:07:51.795Z,2.70
2022-11-23T18:10:19.274Z,2.70
2022-11-23T18:12:47.714Z,2.80
2022-11-23T18:15:15.271Z,2.90
2022-11-23T18:17:42.473Z,2.90
2022-11-23T18:20:10.779Z,3.00
2022-11-23T18:22:38.417Z,3.10
2022-11-23T18:25:06.152Z,3.10
2022-11-23T18:27:33.219Z,3.20
2022-11-23T18:30:00.253Z,3.40
2022-11-23T18:32:27.299Z,3.40
2022-11-23T18:34:54.435Z,3.50
2022-11-23T18:37:21.428Z,3.50
2022-11-23T18:39:48.520Z,3.50
2022-11-23T18:42:15.601Z,3.60
2022-11-23T18:44:42.690Z,3.60
2022-11-23T18:47:09.932Z,3.70
2022-11-23T18:49:37.048Z,3.70
2022-11-23T18:52:04.332Z,3.80
2022-11-23T18:54:31.318Z,3.80
2022-11-23T18:56:58.516Z,3.90
2022-11-23T18:59:56.263Z,3.90
2022-11-23T19:02:13.322Z,3.90
2022-11-23T19:04:40.595Z,3.90
2022-11-23T19:07:07.741Z,4.00
2022-11-23T19:09:35.230Z,4.00
2022-11-23T19:12:02.709Z,4.10
2022-11-23T19:14:29.737Z,4.20
2022-11-23T19:16:56.740Z,4.30
2022-11-23T19:19:23.746Z,4.30
2022-11-23T19:21:50.920Z,4.40
2022-11-23T19:24:17.877Z,4.50
2022-11-23T19:26:44.965Z,4.70
2022-11-23T19:29:12.071Z,4.70
2022-11-23T19:31:39.384Z,4.80
2022-11-23T19:34:06.684Z,4.80
2022-11-23T19:36:36.553Z,4.90
2022-11-23T19:39:08.392Z,4.90
2022-11-23T19:41:35.348Z,5.00
2022-11-23T19:44:02.378Z,5.00
2022-11-23T19:46:30.751Z,5.00
2022-11-23T19:48:58.673Z,5.00
2022-11-23T19:51:26.836Z,5.00
2022-11-23T19:53:57.078Z,4.90
2022-11-23T19:56:25.879Z,4.90
2022-11-23T19:58:57.543Z,4.90
2022-11-23T20:01:26.210Z,4.90
2022-11-23T20:03:55.430Z,4.90
2022-11-23T20:06:26.948Z,4.90
2022-11-23T20:09:06.314Z,4.90
2022-11-23T20:11:34.548Z,4.90
2022-11-23T20:14:02.214Z,4.90
2022-11-23T20:16:31.735Z,4.90
2022-11-23T20:19:01.434Z,5.00
2022-11-23T20:21:29.604Z,5.00
2022-11-23T20:24:05.176Z,4.90
2022-11-23T20:26:33.508Z,4.90
2022-11-23T20:29:00.487Z,4.80
2022-11-23T20:31:30.144Z,4.80
2022-11-23T20:33:58.125Z,4.80
2022-11-23T20:36:30.522Z,4.80
2022-11-23T20:38:58.274Z,4.80
2022-11-23T20:41:27.663Z,4.80
2022-11-23T20:43:59.827Z,4.80
2022-11-23T20:46:59.930Z,4.90
2022-11-23T20:49:17.606Z,4.80
2022-11-23T20:51:44.639Z,4.80
2022-11-23T20:54:12.091Z,4.80
2022-11-23T20:56:39.571Z,4.80
2022-11-23T20:59:06.816Z,4.80
2022-11-23T21:01:34.756Z,4.80
2022-11-23T21:04:01.840Z,4.70
2022-11-23T21:06:29.159Z,4.80
2022-11-23T21:08:56.580Z,4.80
2022-11-23T21:12:05.223Z,4.70
2022-11-23T21:14:34.069Z,4.70
2022-11-23T21:17:02.007Z,4.70
2022-11-23T21:19:34.125Z,4.70
2022-11-23T21:22:06.687Z,4.70
2022-11-23T21:24:35.445Z,4.70
2022-11-23T21:27:04.613Z,4.70
2022-11-23T21:29:32.114Z,4.80
2022-11-23T21:31:59.184Z,4.80
2022-11-23T21:34:28.383Z,4.70
2022-11-23T21:36:57.276Z,4.80
2022-11-23T21:39:24.596Z,4.80
2022-11-23T21:41:53.938Z,4.80
2022-11-23T21:44:24.948Z,4.80
2022-11-23T21:46:52.236Z,4.90
2022-11-23T21:49:19.438Z,4.80
2022-11-23T21:51:46.475Z,4.80
2022-11-23T21:54:16.819Z,4.90
2022-11-23T21:56:45.538Z,4.90
2022-11-23T21:59:13.219Z,4.90
2022-11-23T22:01:40.943Z,4.90
2022-11-23T22:04:13.246Z,4.90
2022-11-23T22:06:42.272Z,5.00
2022-11-23T22:09:10.904Z,5.00
2022-11-23T22:11:41.109Z,5.10
2022-11-23T22:14:11.923Z,5.10
2022-11-23T22:16:44.561Z,5.20
2022-11-23T22:19:14.025Z,5.30
2022-11-23T22:21:43.127Z,5.30
2022-11-23T22:24:13.538Z,5.40
2022-11-23T22:26:40.785Z,5.50
2022-11-23T22:29:07.872Z,5.50
2022-11-23T22:31:36.207Z,5.60
2022-11-23T22:34:05.830Z,5.60
2022-11-23T22:36:33.221Z,5.60
2022-11-23T22:39:02.541Z,5.70
2022-11-23T22:41:33.493Z,5.70
2022-11-23T22:44:00.409Z,5.80
2022-11-23T22:46:28.063Z,5.90
2022-11-23T22:48:59.315Z,5.90
2022-11-23T22:51:28.283Z,5.90
2022-11-23T22:53:57.315Z,6.00
2022-11-23T22:56:25.208Z,5.90
2022-11-23T22:58:52.551Z,6.00
2022-11-23T23:01:22.226Z,6.10
2022-11-23T23:03:52.630Z,6.20
2022-11-23T23:06:23.200Z,6.10
2022-11-23T23:08:57.830Z,6.20
2022-11-23T23:11:26.782Z,6.20
2022-11-23T23:13:53.877Z,6.20
2022-11-23T23:16:21.067Z,6.10
2022-11-23T23:18:48.481Z,6.20
2022-11-23T23:21:17.454Z,6.20
2022-11-23T23:23:46.757Z,6.30
2022-11-23T23:26:15.142Z,6.20
2022-11-23T23:28:43.003Z,6.20
2022-11-23T23:31:16.310Z,6.20
2022-11-23T23:33:44.803Z,6.20
2022-11-23T23:36:14.815Z,6.20
2022-11-23T23:38:42.094Z,6.30
2022-11-23T23:41:10.763Z,6.30
2022-11-23T23:43:37.836Z,6.30
2022-11-23T23:46:10.144Z,6.20
2022-11-23T23:48:38.734Z,6.20
2022-11-23T23:51:14.528Z,6.20
2022-11-23T23:53:42.290Z,6.20
2022-11-23T23:56:26.984Z,6.10
2022-11-23T23:58:56.682Z,6.10
